Time;durP1;ratioP1;P1;durP2;ratioP2;P2;SDS_P1;SDS_P2;PMS_P1;PMS_P2;Temp;Humidity;BMP_temperature;BMP_pressure;BME280_temperature;BME280_humidity;BME280_pressure;Samples;Min_cycle;Max_cycle;Signal;HPM_P1;HPM_P2
2023/01/18 00:00:34;;;;;;;0.30;0.30;;;2.40;98.70;;;;;;5053641;28;20581;-72
2023/01/18 00:02:59;;;;;;;0.50;0.50;;;2.40;98.90;;;;;;5053645;28;20178;-73
2023/01/18 00:05:25;;;;;;;0.33;0.33;;;2.30;99.00;;;;;;5053746;28;20585;-72
2023/01/18 00:07:54;;;;;;;0.77;0.77;;;2.20;99.20;;;;;;5053564;28;20196;-72
2023/01/18 00:10:21;;;;;;;0.40;0.40;;;2.20;99.50;;;;;;5053640;28;20183;-69
2023/01/18 00:12:47;;;;;;;0.40;0.40;;;2.20;99.60;;;;;;5053357;28;20177;-73
2023/01/18 00:15:13;;;;;;;0.30;0.30;;;2.10;99.40;;;;;;5053463;28;20184;-69
2023/01/18 00:17:46;;;;;;;0.30;0.30;;;2.00;99.80;;;;;;5053346;28;20448;-70
2023/01/18 00:20:15;;;;;;;0.30;0.30;;;1.90;99.90;;;;;;5053377;28;20426;-71
2023/01/18 00:22:41;;;;;;;0.30;0.30;;;1.90;99.90;;;;;;5053308;28;20180;-68
2023/01/18 00:25:09;;;;;;;0.40;0.40;;;2.00;99.90;;;;;;5052244;28;20633;-68
2023/01/18 00:27:35;;;;;;;0.30;0.30;;;2.10;99.90;;;;;;5053380;28;20430;-69
2023/01/18 00:30:05;;;;;;;0.30;0.30;;;2.10;99.90;;;;;;5053540;28;20671;-69
2023/01/18 00:32:31;;;;;;;0.40;0.40;;;2.20;99.90;;;;;;5053012;28;20185;-69
2023/01/18 00:34:56;;;;;;;0.40;0.40;;;2.20;99.90;;;;;;5053253;28;20271;-69
2023/01/18 00:37:26;;;;;;;0.50;0.50;;;2.30;99.90;;;;;;5053296;28;20428;-70
2023/01/18 00:39:52;;;;;;;0.35;0.35;;;2.30;99.90;;;;;;5053301;28;20218;-70
2023/01/18 00:45:02;;;;;;;1.40;0.55;;;2.20;99.60;;;;;;5053437;28;20965;-67
2023/01/18 00:47:28;;;;;;;0.40;0.40;;;2.10;99.50;;;;;;5053265;28;20291;-69
2023/01/18 00:49:54;;;;;;;0.40;0.40;;;2.20;99.70;;;;;;5053265;28;20664;-68
2023/01/18 00:52:19;;;;;;;0.30;0.30;;;2.20;99.20;;;;;;5052835;28;20204;-69
2023/01/18 00:54:45;;;;;;;0.50;0.50;;;2.10;99.30;;;;;;5053238;28;20169;-71
2023/01/18 00:57:11;;;;;;;0.30;0.30;;;2.10;99.40;;;;;;5053179;28;20172;-70
2023/01/18 00:59:36;;;;;;;0.30;0.30;;;2.20;99.40;;;;;;5053215;28;20204;-70
2023/01/18 01:02:02;;;;;;;0.37;0.37;;;2.20;99.50;;;;;;5053038;28;20183;-70
2023/01/18 01:07:13;;;;;;;0.30;0.30;;;2.30;99.70;;;;;;5053073;28;20311;-69
2023/01/18 01:09:39;;;;;;;0.40;0.40;;;2.30;99.80;;;;;;5052966;28;20263;-68
2023/01/18 01:26:12;;;;;;;0.40;0.40;;;2.30;99.90;;;;;;5055636;28;20187;-69
2023/01/18 01:28:40;;;;;;;0.30;0.30;;;2.40;99.90;;;;;;5055138;28;20201;-71
2023/01/18 01:31:08;;;;;;;0.30;0.30;;;2.50;99.60;;;;;;5056394;28;20226;-70
2023/01/18 01:33:35;;;;;;;0.40;0.40;;;2.50;99.30;;;;;;5055038;28;20631;-71
2023/01/18 01:36:06;;;;;;;0.40;0.40;;;2.60;99.30;;;;;;5056533;28;20177;-70
2023/01/18 01:38:32;;;;;;;0.30;0.30;;;2.50;99.30;;;;;;5056175;28;20715;-71
2023/01/18 01:41:03;;;;;;;0.40;0.40;;;2.50;99.40;;;;;;5056471;28;20188;-72
2023/01/18 01:43:48;;;;;;;0.30;0.30;;;2.40;98.80;;;;;;5056084;28;20504;-70
2023/01/18 01:46:27;;;;;;;0.30;0.30;;;2.20;98.80;;;;;;5056354;28;20176;-72
2023/01/18 01:49:03;;;;;;;0.40;0.40;;;2.10;99.10;;;;;;5054726;28;20706;-68
2023/01/18 01:51:30;;;;;;;0.40;0.40;;;2.20;99.20;;;;;;5056190;28;20200;-72
2023/01/18 01:54:00;;;;;;;0.30;0.30;;;2.20;99.30;;;;;;5055924;28;20177;-72
2023/01/18 01:56:26;;;;;;;0.40;0.40;;;2.30;99.10;;;;;;5054741;28;20221;-72
2023/01/18 01:58:56;;;;;;;0.30;0.30;;;2.40;98.80;;;;;;5055968;28;20250;-69
2023/01/18 02:01:22;;;;;;;0.40;0.40;;;2.40;98.60;;;;;;5055807;28;20400;-72
2023/01/18 02:03:47;;;;;;;0.70;0.70;;;2.40;98.70;;;;;;5055635;28;20253;-70
2023/01/18 02:06:30;;;;;;;0.40;0.40;;;2.40;98.80;;;;;;5055811;28;20177;-71
2023/01/18 02:09:08;;;;;;;0.30;0.30;;;2.40;98.70;;;;;;5055821;28;20193;-69
2023/01/18 02:11:34;;;;;;;0.40;0.40;;;2.40;98.70;;;;;;5055780;28;20203;-69
2023/01/18 02:14:04;;;;;;;0.30;0.30;;;2.40;98.60;;;;;;5055382;28;20244;-68
2023/01/18 02:16:48;;;;;;;0.30;0.30;;;2.40;98.70;;;;;;5055618;28;20576;-72
2023/01/18 02:19:22;;;;;;;0.30;0.30;;;2.40;98.80;;;;;;5055448;28;20577;-69
2023/01/18 02:21:54;;;;;;;0.30;0.30;;;2.40;98.80;;;;;;5055482;28;20182;-69
2023/01/18 02:24:55;;;;;;;0.30;0.30;;;2.30;98.90;;;;;;5055544;28;20263;-69
2023/01/18 02:27:30;;;;;;;0.30;0.30;;;2.30;99.10;;;;;;5033682;28;20691;-71
2023/01/18 02:30:06;;;;;;;0.30;0.30;;;2.20;99.20;;;;;;5052387;28;20229;-70
2023/01/18 02:32:46;;;;;;;0.40;0.40;;;2.20;99.50;;;;;;5055131;28;20230;-72
2023/01/18 02:35:52;;;;;;;0.40;0.40;;;2.20;99.60;;;;;;5055251;28;20174;-69
2023/01/18 02:38:26;;;;;;;0.30;0.30;;;2.20;99.50;;;;;;5054821;28;20262;-69
2023/01/18 02:41:20;;;;;;;0.32;0.32;;;2.20;99.60;;;;;;5055099;28;20171;-71
2023/01/18 02:46:34;;;;;;;0.30;0.30;;;2.10;99.60;;;;;;5055534;28;20186;-72
2023/01/18 02:49:09;;;;;;;0.30;0.30;;;2.20;99.70;;;;;;5055078;28;20196;-68
2023/01/18 02:51:36;;;;;;;0.30;0.30;;;2.10;99.50;;;;;;5055100;28;20560;-72
2023/01/18 02:54:07;;;;;;;0.30;0.30;;;2.10;99.70;;;;;;5054747;28;20175;-70
2023/01/18 02:56:41;;;;;;;0.30;0.30;;;2.20;99.70;;;;;;5055035;28;20180;-70
2023/01/18 02:59:20;;;;;;;0.30;0.30;;;2.10;99.60;;;;;;5054800;28;20243;-69
2023/01/18 03:02:00;;;;;;;0.30;0.30;;;2.10;99.40;;;;;;5054705;28;20183;-68
2023/01/18 03:04:52;;;;;;;0.30;0.30;;;2.30;99.50;;;;;;5054699;28;20163;-71
2023/01/18 03:07:26;;;;;;;0.30;0.30;;;2.10;99.50;;;;;;5054818;28;20532;-69
2023/01/18 03:09:54;;;;;;;0.30;0.30;;;2.10;99.40;;;;;;5054640;28;20160;-71
2023/01/18 03:12:25;;;;;;;0.40;0.40;;;2.20;99.50;;;;;;5053115;28;20209;-68
2023/01/18 03:15:07;;;;;;;0.30;0.30;;;2.10;99.10;;;;;;5054713;28;20192;-71
2023/01/18 03:17:42;;;;;;;0.30;0.30;;;2.00;98.90;;;;;;5054432;28;20182;-69
2023/01/18 03:20:14;;;;;;;0.30;0.30;;;2.00;99.20;;;;;;5054253;28;20293;-69
2023/01/18 03:25:37;;;;;;;0.40;0.40;;;2.10;99.30;;;;;;5054377;28;20229;-71
2023/01/18 03:33:45;;;;;;;0.35;0.35;;;2.00;99.30;;;;;;5054283;28;20189;-69
2023/01/18 03:36:19;;;;;;;0.30;0.30;;;2.00;99.20;;;;;;5054448;28;20175;-71
2023/01/18 03:38:49;;;;;;;0.40;0.40;;;2.00;99.20;;;;;;5053905;28;20190;-71
2023/01/18 03:41:18;;;;;;;0.30;0.30;;;2.00;99.40;;;;;;5052654;28;20667;-70
2023/01/18 03:43:47;;;;;;;0.40;0.40;;;2.00;99.30;;;;;;5053699;28;20171;-70
2023/01/18 03:46:17;;;;;;;0.30;0.30;;;2.00;99.00;;;;;;5053917;28;20173;-69
2023/01/18 03:48:43;;;;;;;0.30;0.30;;;2.00;99.00;;;;;;5053700;28;20196;-69
2023/01/18 03:51:22;;;;;;;0.30;0.30;;;2.10;99.00;;;;;;5053868;28;20259;-71
2023/01/18 03:54:14;;;;;;;0.40;0.40;;;2.20;98.90;;;;;;5053556;28;20168;-70
2023/01/18 03:56:47;;;;;;;0.30;0.30;;;2.20;98.70;;;;;;5053800;28;20168;-70
2023/01/18 03:59:13;;;;;;;0.30;0.30;;;2.10;98.60;;;;;;5053638;28;20656;-70
2023/01/18 04:01:39;;;;;;;0.30;0.30;;;2.20;98.70;;;;;;5053696;28;20542;-68
2023/01/18 04:04:04;;;;;;;0.30;0.30;;;2.10;98.50;;;;;;5053883;28;20173;-72
2023/01/18 04:06:31;;;;;;;0.30;0.30;;;1.90;98.20;;;;;;5053516;28;20411;-71
2023/01/18 04:08:57;;;;;;;0.30;0.30;;;1.70;98.20;;;;;;5053458;28;20545;-72
2023/01/18 04:11:23;;;;;;;0.30;0.30;;;1.70;98.50;;;;;;5053541;28;20203;-71
2023/01/18 04:13:48;;;;;;;0.30;0.30;;;1.80;98.70;;;;;;5053546;28;20609;-68
2023/01/18 04:16:14;;;;;;;0.33;0.33;;;1.90;98.90;;;;;;5053599;28;20164;-68
2023/01/18 04:18:40;;;;;;;0.30;0.30;;;2.00;98.90;;;;;;5053382;28;20179;-70
2023/01/18 04:21:06;;;;;;;0.30;0.30;;;2.00;98.70;;;;;;5053749;28;20315;-73
2023/01/18 04:23:31;;;;;;;0.40;0.40;;;1.90;98.60;;;;;;5053295;28;20241;-68
2023/01/18 04:25:57;;;;;;;0.30;0.30;;;1.90;98.70;;;;;;5053334;28;20230;-68
2023/01/18 04:28:25;;;;;;;0.30;0.30;;;1.90;98.90;;;;;;5053238;28;20228;-70
2023/01/18 04:30:55;;;;;;;0.30;0.30;;;1.90;99.00;;;;;;5053406;28;20193;-71
2023/01/18 04:33:22;;;;;;;0.40;0.40;;;1.90;99.00;;;;;;5053101;28;20256;-72
2023/01/18 04:35:49;;;;;;;0.40;0.40;;;2.00;99.10;;;;;;5053711;28;20256;-69
2023/01/18 04:38:15;;;;;;;0.30;0.30;;;2.00;99.10;;;;;;5053348;28;20188;-69
2023/01/18 04:40:41;;;;;;;0.40;0.40;;;2.10;98.90;;;;;;5053449;28;20184;-68
2023/01/18 04:43:07;;;;;;;0.30;0.30;;;2.10;99.00;;;;;;5053062;28;20188;-70
2023/01/18 04:45:32;;;;;;;0.40;0.40;;;2.10;98.90;;;;;;5053474;28;20174;-69
2023/01/18 04:47:58;;;;;;;0.30;0.30;;;2.10;98.90;;;;;;5053327;28;20461;-72
2023/01/18 04:50:24;;;;;;;0.40;0.40;;;2.10;98.80;;;;;;5053036;28;20173;-70
2023/01/18 04:52:50;;;;;;;0.30;0.30;;;2.10;98.80;;;;;;5053008;28;20175;-72
2023/01/18 04:55:15;;;;;;;0.33;0.33;;;2.10;98.70;;;;;;5053275;28;20201;-72
2023/01/18 04:57:42;;;;;;;0.40;0.40;;;2.00;98.70;;;;;;5053150;28;20459;-68
2023/01/18 05:00:10;;;;;;;0.40;0.40;;;2.00;98.90;;;;;;5054431;28;20510;-71
2023/01/18 05:02:36;;;;;;;0.40;0.40;;;2.10;99.00;;;;;;5056744;28;20232;-72
2023/01/18 05:05:03;;;;;;;0.40;0.40;;;2.10;99.00;;;;;;5056859;28;20177;-71
2023/01/18 05:07:30;;;;;;;0.40;0.40;;;2.00;99.20;;;;;;5056820;28;20431;-71
2023/01/18 05:09:55;;;;;;;0.40;0.40;;;1.90;99.00;;;;;;5056836;28;20662;-70
2023/01/18 05:12:22;;;;;;;0.40;0.40;;;1.80;99.10;;;;;;5056629;28;20240;-70
2023/01/18 05:14:47;;;;;;;0.40;0.40;;;1.90;99.30;;;;;;5056975;28;20761;-69
2023/01/18 05:17:13;;;;;;;0.40;0.40;;;1.80;99.20;;;;;;5056759;28;20186;-71
2023/01/18 05:19:39;;;;;;;0.40;0.40;;;1.80;99.30;;;;;;5056526;28;20193;-68
2023/01/18 05:22:05;;;;;;;0.40;0.40;;;1.80;99.30;;;;;;5056595;28;20260;-72
2023/01/18 05:24:31;;;;;;;0.40;0.40;;;1.80;99.40;;;;;;5056628;28;20179;-68
2023/01/18 05:26:57;;;;;;;0.40;0.40;;;1.80;99.50;;;;;;5055382;28;20540;-70
2023/01/18 05:29:23;;;;;;;0.30;0.30;;;1.70;99.60;;;;;;5056356;28;20201;-71
2023/01/18 05:31:48;;;;;;;0.40;0.40;;;1.70;99.70;;;;;;5056343;28;20447;-70
2023/01/18 05:34:14;;;;;;;0.40;0.40;;;1.70;99.60;;;;;;5056585;28;20654;-69
2023/01/18 05:36:40;;;;;;;0.40;0.40;;;1.80;99.70;;;;;;5056708;28;20256;-73
2023/01/18 05:39:06;;;;;;;0.40;0.40;;;1.90;99.70;;;;;;5054922;28;20691;-71
2023/01/18 05:41:31;;;;;;;0.57;0.57;;;1.90;99.70;;;;;;5056456;28;20174;-70
2023/01/18 05:43:57;;;;;;;0.30;0.30;;;1.90;99.70;;;;;;5056241;28;20552;-68
2023/01/18 05:46:23;;;;;;;0.30;0.30;;;1.90;99.60;;;;;;5056293;28;20172;-70
2023/01/18 05:48:48;;;;;;;0.30;0.30;;;1.90;99.70;;;;;;5056061;28;20285;-71
2023/01/18 05:51:14;;;;;;;0.30;0.30;;;1.90;99.70;;;;;;5056225;28;20201;-70
2023/01/18 05:53:40;;;;;;;0.30;0.30;;;1.90;99.80;;;;;;5055807;28;20169;-70
2023/01/18 05:56:06;;;;;;;0.37;0.37;;;2.00;99.80;;;;;;5056173;28;20224;-67
2023/01/18 05:58:32;;;;;;;0.30;0.30;;;2.10;99.60;;;;;;5056057;28;20426;-70
2023/01/18 06:00:58;;;;;;;0.33;0.33;;;2.20;99.50;;;;;;5055813;28;20260;-72
2023/01/18 06:03:24;;;;;;;0.40;0.40;;;2.20;99.50;;;;;;5055762;28;20411;-71
2023/01/18 06:05:51;;;;;;;0.40;0.40;;;2.00;98.80;;;;;;5056204;28;20174;-71
2023/01/18 06:08:17;;;;;;;0.30;0.30;;;1.90;99.00;;;;;;5055718;28;20589;-68
2023/01/18 06:10:43;;;;;;;0.40;0.40;;;1.90;99.20;;;;;;5055506;28;20192;-69
2023/01/18 06:13:09;;;;;;;0.30;0.30;;;1.90;98.70;;;;;;5055550;28;20532;-71
2023/01/18 06:15:35;;;;;;;0.30;0.30;;;1.80;98.40;;;;;;5055777;28;20214;-72
2023/01/18 06:18:01;;;;;;;0.30;0.30;;;1.80;98.50;;;;;;5055731;28;20599;-70
2023/01/18 06:20:29;;;;;;;0.40;0.40;;;1.80;98.60;;;;;;5055464;28;20428;-73
2023/01/18 06:22:56;;;;;;;0.40;0.40;;;1.80;98.60;;;;;;5055268;28;20430;-69
2023/01/18 06:25:22;;;;;;;0.30;0.30;;;1.80;98.60;;;;;;5055732;28;20538;-72
2023/01/18 06:27:48;;;;;;;0.40;0.40;;;1.90;98.60;;;;;;5055414;28;20191;-71
2023/01/18 06:30:14;;;;;;;0.30;0.30;;;1.90;98.50;;;;;;5055300;28;20199;-70
2023/01/18 06:32:40;;;;;;;0.40;0.40;;;1.80;98.50;;;;;;5055398;28;20227;-72
2023/01/18 06:35:06;;;;;;;0.50;0.50;;;1.80;98.50;;;;;;5055310;28;20668;-69
2023/01/18 06:37:31;;;;;;;0.35;0.35;;;1.80;98.50;;;;;;5055083;28;20279;-72
2023/01/18 06:39:57;;;;;;;0.33;0.33;;;1.80;98.50;;;;;;5055244;28;20183;-70
2023/01/18 06:42:23;;;;;;;0.30;0.30;;;1.80;97.90;;;;;;5055080;28;20174;-69
2023/01/18 06:44:48;;;;;;;0.30;0.30;;;1.80;97.80;;;;;;5055222;28;20176;-71
2023/01/18 06:47:18;;;;;;;0.40;0.40;;;1.70;97.80;;;;;;5054967;28;20322;-71
2023/01/18 06:49:48;;;;;;;0.32;0.32;;;1.70;97.70;;;;;;5055321;28;20494;-69
2023/01/18 06:52:14;;;;;;;0.40;0.40;;;1.70;97.50;;;;;;5054717;28;20253;-71
2023/01/18 06:54:40;;;;;;;0.40;0.40;;;1.50;97.20;;;;;;5055033;28;20175;-72
2023/01/18 06:57:05;;;;;;;0.37;0.37;;;1.40;97.40;;;;;;5054950;28;20172;-69
2023/01/18 06:59:31;;;;;;;0.40;0.40;;;1.40;97.50;;;;;;5054709;28;20431;-69
2023/01/18 07:01:57;;;;;;;0.30;0.30;;;1.30;97.60;;;;;;5054760;28;20177;-72
2023/01/18 07:04:22;;;;;;;0.30;0.30;;;1.40;97.70;;;;;;5054775;28;20195;-72
2023/01/18 07:06:48;;;;;;;0.40;0.40;;;1.40;97.60;;;;;;5054729;28;20177;-72
2023/01/18 07:09:13;;;;;;;0.30;0.30;;;1.30;97.60;;;;;;5054571;28;20234;-69
2023/01/18 07:11:42;;;;;;;0.30;0.30;;;1.30;97.80;;;;;;5054507;28;20192;-69
2023/01/18 07:14:10;;;;;;;0.82;0.82;;;1.30;97.80;;;;;;5054453;28;20197;-71
2023/01/18 07:16:36;;;;;;;0.40;0.40;;;1.20;97.80;;;;;;5054636;28;20201;-72
2023/01/18 07:19:02;;;;;;;0.40;0.40;;;1.20;97.80;;;;;;5054197;28;20210;-72
2023/01/18 07:21:29;;;;;;;0.40;0.40;;;1.10;97.90;;;;;;5054514;28;20258;-70
2023/01/18 07:23:58;;;;;;;0.40;0.40;;;1.00;98.10;;;;;;5053838;28;20186;-70
2023/01/18 07:26:24;;;;;;;0.40;0.40;;;1.10;98.40;;;;;;5054392;28;20542;-71
2023/01/18 07:28:50;;;;;;;0.40;0.40;;;1.10;98.50;;;;;;5054150;28;20196;-72
2023/01/18 07:31:17;;;;;;;0.40;0.40;;;1.20;98.50;;;;;;5054337;28;20205;-71
2023/01/18 07:33:43;;;;;;;0.40;0.40;;;1.20;98.50;;;;;;5054074;28;20168;-70
2023/01/18 07:36:10;;;;;;;0.30;0.30;;;1.30;98.50;;;;;;5054240;28;20168;-68
2023/01/18 07:38:37;;;;;;;0.40;0.40;;;1.30;97.90;;;;;;5054177;28;20431;-71
2023/01/18 07:41:09;;;;;;;0.40;0.40;;;1.30;97.90;;;;;;5052646;28;20645;-70
2023/01/18 07:43:38;;;;;;;0.30;0.30;;;1.30;97.80;;;;;;5053814;28;20174;-70
2023/01/18 07:46:05;;;;;;;0.40;0.40;;;1.30;97.30;;;;;;5054130;28;20178;-72
2023/01/18 07:48:31;;;;;;;0.30;0.30;;;1.40;97.40;;;;;;5053937;28;20200;-70
2023/01/18 07:51:02;;;;;;;0.30;0.30;;;1.50;97.20;;;;;;5053809;28;20305;-69
2023/01/18 07:53:29;;;;;;;0.40;0.40;;;1.50;97.10;;;;;;5053624;28;20261;-69
2023/01/18 07:56:04;;;;;;;0.30;0.30;;;1.50;97.10;;;;;;5052445;28;20208;-72
2023/01/18 07:58:29;;;;;;;0.40;0.40;;;1.60;97.00;;;;;;5053943;28;20199;-71
2023/01/18 08:01:05;;;;;;;0.30;0.30;;;1.60;97.00;;;;;;5053980;28;20536;-72
2023/01/18 08:03:31;;;;;;;0.40;0.40;;;1.70;96.90;;;;;;5053694;28;20253;-72
2023/01/18 08:06:00;;;;;;;0.50;0.50;;;1.80;97.00;;;;;;5052497;28;20268;-70
2023/01/18 08:08:27;;;;;;;0.40;0.40;;;1.70;96.70;;;;;;5053520;28;20528;-70
2023/01/18 08:10:57;;;;;;;0.30;0.30;;;1.80;96.80;;;;;;5053741;28;20196;-71
2023/01/18 08:13:24;;;;;;;0.40;0.40;;;1.80;96.60;;;;;;5053573;28;20260;-72
2023/01/18 08:15:49;;;;;;;0.38;0.38;;;1.80;96.90;;;;;;5053610;28;20188;-73
2023/01/18 08:18:15;;;;;;;0.40;0.40;;;1.80;96.40;;;;;;5053589;28;20194;-70
2023/01/18 08:20:45;;;;;;;0.40;0.40;;;1.80;96.30;;;;;;5053316;28;20239;-70
2023/01/18 08:23:11;;;;;;;0.40;0.40;;;1.80;96.30;;;;;;5053451;28;20407;-72
2023/01/18 08:25:36;;;;;;;0.50;0.50;;;1.90;96.50;;;;;;5053455;28;20182;-70
2023/01/18 08:28:03;;;;;;;0.40;0.40;;;2.00;96.40;;;;;;5053432;28;20428;-69
2023/01/18 08:30:32;;;;;;;0.40;0.40;;;2.20;96.40;;;;;;5053321;28;20174;-69
2023/01/18 08:32:59;;;;;;;0.40;0.40;;;2.20;95.80;;;;;;5053193;28;20170;-69
2023/01/18 08:35:31;;;;;;;0.77;0.77;;;2.20;95.50;;;;;;5055463;28;20184;-70
2023/01/18 08:37:58;;;;;;;1.65;0.68;;;2.30;95.50;;;;;;5057670;28;20198;-68
2023/01/18 08:40:24;;;;;;;0.40;0.40;;;2.30;95.40;;;;;;5057367;28;20173;-71
2023/01/18 08:42:54;;;;;;;0.40;0.40;;;2.40;95.10;;;;;;5057289;28;20539;-71
2023/01/18 08:45:20;;;;;;;0.40;0.40;;;2.50;95.20;;;;;;5057468;28;20173;-70
2023/01/18 08:47:46;;;;;;;0.40;0.40;;;2.70;94.80;;;;;;5057197;28;20190;-72
2023/01/18 08:50:12;;;;;;;0.33;0.33;;;2.80;94.30;;;;;;5055961;28;20197;-72
2023/01/18 08:52:37;;;;;;;0.40;0.40;;;2.80;94.20;;;;;;5057005;28;20198;-72
2023/01/18 08:55:04;;;;;;;0.40;0.40;;;2.90;94.30;;;;;;5057469;28;20166;-70
2023/01/18 08:57:30;;;;;;;0.40;0.40;;;3.10;94.20;;;;;;5057115;28;20185;-70
2023/01/18 08:59:56;;;;;;;0.40;0.40;;;3.20;94.20;;;;;;5057019;28;20245;-69
2023/01/18 09:02:23;;;;;;;0.40;0.40;;;3.40;94.20;;;;;;5057217;28;20644;-72
2023/01/18 09:04:49;;;;;;;0.40;0.40;;;3.60;94.00;;;;;;5057294;28;20227;-71
2023/01/18 09:07:16;;;;;;;0.40;0.40;;;3.80;92.60;;;;;;5056915;28;20250;-73
2023/01/18 09:09:43;;;;;;;0.40;0.40;;;3.80;91.70;;;;;;5056838;28;20409;-71
2023/01/18 09:12:09;;;;;;;0.30;0.30;;;3.80;90.60;;;;;;5056749;28;20276;-70
2023/01/18 09:14:35;;;;;;;0.50;0.50;;;3.80;91.00;;;;;;5056908;28;20181;-71
2023/01/18 09:17:01;;;;;;;0.40;0.40;;;3.80;91.70;;;;;;5056717;28;20170;-72
2023/01/18 09:19:27;;;;;;;0.30;0.30;;;3.90;91.90;;;;;;5056502;28;20202;-70
2023/01/18 09:21:52;;;;;;;0.40;0.40;;;4.10;91.60;;;;;;5055255;28;20295;-70
2023/01/18 09:24:18;;;;;;;0.40;0.40;;;4.10;91.00;;;;;;5056711;28;20260;-71
2023/01/18 09:26:45;;;;;;;0.40;0.40;;;3.90;90.10;;;;;;5056768;28;20174;-72
2023/01/18 09:29:11;;;;;;;0.52;0.52;;;3.90;90.10;;;;;;5056668;28;20186;-70
2023/01/18 09:31:36;;;;;;;0.30;0.30;;;4.10;90.00;;;;;;5056361;28;20214;-70
2023/01/18 09:34:02;;;;;;;0.50;0.50;;;4.30;87.80;;;;;;5056306;28;20405;-72
2023/01/18 09:36:28;;;;;;;0.40;0.40;;;4.50;87.20;;;;;;5056402;28;20212;-72
2023/01/18 09:38:54;;;;;;;0.30;0.30;;;4.60;87.70;;;;;;5056231;28;20183;-73
2023/01/18 09:41:41;;;;;;;0.50;0.50;;;4.80;88.70;;;;;;5056417;28;20170;-72
2023/01/18 09:44:22;;;;;;;0.40;0.40;;;4.70;88.20;;;;;;5056517;28;20183;-72
2023/01/18 09:46:58;;;;;;;0.40;0.40;;;4.60;88.00;;;;;;5055738;28;20170;-72
2023/01/18 09:49:50;;;;;;;3.15;0.63;;;4.80;88.20;;;;;;5056122;28;20217;-72
2023/01/18 09:52:23;;;;;;;0.38;0.38;;;5.00;87.60;;;;;;5055986;28;20190;-71
2023/01/18 09:55:05;;;;;;;0.40;0.40;;;5.00;86.40;;;;;;5056128;28;20181;-72
2023/01/18 09:57:58;;;;;;;0.40;0.40;;;4.90;84.80;;;;;;5056202;28;20253;-72
2023/01/18 10:00:30;;;;;;;0.40;0.40;;;4.80;84.70;;;;;;5056005;28;20159;-70
2023/01/18 10:03:07;;;;;;;0.40;0.40;;;4.50;85.00;;;;;;5055963;28;20186;-68
2023/01/18 10:05:39;;;;;;;0.30;0.30;;;4.40;85.80;;;;;;5055869;28;20657;-68
2023/01/18 10:08:24;;;;;;;0.30;0.30;;;4.50;87.00;;;;;;5055787;28;20198;-72
2023/01/18 10:10:58;;;;;;;0.40;0.40;;;4.60;86.20;;;;;;5055609;28;20185;-70
2023/01/18 10:13:50;;;;;;;0.40;0.40;;;4.40;86.50;;;;;;5055535;28;20650;-70
2023/01/18 10:16:17;;;;;;;1.58;0.60;;;4.40;86.60;;;;;;5055419;28;20189;-73
2023/01/18 10:18:45;;;;;;;0.40;0.40;;;4.20;86.90;;;;;;5055899;28;20198;-70
2023/01/18 10:21:21;;;;;;;1.25;1.25;;;4.10;86.80;;;;;;5055472;28;20162;-72
2023/01/18 10:23:46;;;;;;;0.40;0.40;;;4.00;87.20;;;;;;5055349;28;20178;-69
2023/01/18 10:26:34;;;;;;;0.40;0.40;;;3.90;88.00;;;;;;5055484;28;20228;-69
2023/01/18 10:29:37;;;;;;;0.65;0.65;;;3.90;88.90;;;;;;5055466;28;20535;-69
2023/01/18 10:32:09;;;;;;;0.30;0.30;;;4.00;88.30;;;;;;5055036;28;20263;-71
2023/01/18 10:34:40;;;;;;;0.30;0.30;;;4.10;87.70;;;;;;5055491;28;20180;-71
2023/01/18 10:37:32;;;;;;;0.60;0.60;;;4.00;87.40;;;;;;5054058;28;20619;-71
2023/01/18 10:40:04;;;;;;;0.40;0.40;;;4.00;86.90;;;;;;5051029;28;20187;-72
2023/01/18 10:42:32;;;;;;;0.40;0.40;;;4.00;86.10;;;;;;5055164;28;20187;-70
2023/01/18 10:44:58;;;;;;;0.40;0.40;;;3.90;86.00;;;;;;5055283;28;20517;-70
2023/01/18 10:47:24;;;;;;;0.40;0.40;;;3.80;86.20;;;;;;5055203;28;20585;-69
2023/01/18 10:49:55;;;;;;;0.40;0.40;;;3.80;86.20;;;;;;5053739;28;20174;-72
2023/01/18 10:52:24;;;;;;;0.40;0.40;;;3.80;85.90;;;;;;5054814;28;20205;-71
2023/01/18 10:54:58;;;;;;;0.63;0.63;;;3.90;85.10;;;;;;5053780;28;20554;-72
2023/01/18 10:57:48;;;;;;;1.05;1.05;;;3.90;84.80;;;;;;5054057;28;20166;-68
2023/01/18 11:00:29;;;;;;;1.25;1.05;;;4.30;86.00;;;;;;5054796;28;20155;-70
2023/01/18 11:02:58;;;;;;;0.38;0.38;;;4.90;84.30;;;;;;5054501;28;20162;-71
2023/01/18 11:05:38;;;;;;;0.40;0.40;;;5.30;82.70;;;;;;5054645;28;20624;-71
2023/01/18 11:08:14;;;;;;;0.40;0.40;;;5.60;81.50;;;;;;5054599;28;20234;-72
2023/01/18 11:10:40;;;;;;;0.40;0.40;;;5.80;80.40;;;;;;5054489;28;20534;-71
2023/01/18 11:13:29;;;;;;;0.30;0.30;;;6.10;80.70;;;;;;5054466;28;20244;-72
2023/01/18 11:16:22;;;;;;;0.60;0.60;;;6.20;79.10;;;;;;5054661;28;20180;-69
2023/01/18 11:18:59;;;;;;;1.25;1.15;;;6.40;77.70;;;;;;5054200;28;20211;-70
2023/01/18 11:21:39;;;;;;;0.40;0.40;;;6.40;77.10;;;;;;5054499;28;20195;-70
2023/01/18 11:24:15;;;;;;;0.35;0.35;;;6.50;76.50;;;;;;5054594;28;20190;-70
2023/01/18 11:26:55;;;;;;;0.40;0.40;;;6.40;73.50;;;;;;5054482;28;20233;-70
2023/01/18 11:29:23;;;;;;;0.40;0.40;;;6.00;70.80;;;;;;5054284;28;20186;-70
2023/01/18 11:31:51;;;;;;;0.50;0.50;;;5.80;73.20;;;;;;5052822;28;20198;-70
2023/01/18 11:34:29;;;;;;;0.40;0.40;;;5.50;71.50;;;;;;5054284;28;20253;-70
2023/01/18 11:36:56;;;;;;;0.40;0.40;;;5.00;73.50;;;;;;5054091;28;20199;-70
2023/01/18 11:39:27;;;;;;;0.43;0.40;;;4.80;74.80;;;;;;5053929;28;20232;-69
2023/01/18 11:42:15;;;;;;;0.47;0.47;;;4.80;75.70;;;;;;5054028;28;20178;-71
2023/01/18 11:44:50;;;;;;;0.40;0.40;;;4.70;75.10;;;;;;5050242;28;20560;-72
2023/01/18 11:47:26;;;;;;;0.40;0.40;;;4.50;75.20;;;;;;5053847;28;20173;-71
2023/01/18 11:50:29;;;;;;;0.65;0.65;;;4.40;75.10;;;;;;5053915;28;20245;-71
2023/01/18 11:53:03;;;;;;;0.40;0.40;;;4.10;76.60;;;;;;5053693;28;20580;-68
2023/01/18 11:56:00;;;;;;;0.40;0.40;;;4.00;76.30;;;;;;5053786;28;20174;-69
2023/01/18 11:58:28;;;;;;;0.45;0.45;;;3.80;78.10;;;;;;5051714;28;20205;-71
2023/01/18 12:01:20;;;;;;;0.40;0.40;;;3.90;79.90;;;;;;5052433;28;20178;-69
2023/01/18 12:04:23;;;;;;;0.40;0.40;;;4.10;80.00;;;;;;5053540;28;20182;-70
2023/01/18 12:07:25;;;;;;;0.30;0.30;;;4.10;80.00;;;;;;5053685;28;20172;-72
2023/01/18 12:09:55;;;;;;;0.60;0.60;;;4.20;81.30;;;;;;5053637;28;20172;-71
2023/01/18 12:12:42;;;;;;;0.65;0.57;;;4.30;79.40;;;;;;5053437;28;20213;-71
2023/01/18 12:15:13;;;;;;;0.82;0.82;;;4.40;78.50;;;;;;5053710;28;20162;-72
2023/01/18 12:18:07;;;;;;;0.88;0.88;;;4.50;78.30;;;;;;5053600;28;20182;-70
2023/01/18 12:20:44;;;;;;;0.40;0.40;;;4.70;78.40;;;;;;5053266;28;20197;-69
2023/01/18 12:23:36;;;;;;;0.40;0.40;;;4.70;77.90;;;;;;5053287;28;20166;-70
2023/01/18 12:26:23;;;;;;;0.40;0.40;;;4.70;78.30;;;;;;5044843;28;20547;-68
2023/01/18 12:29:07;;;;;;;0.40;0.40;;;4.90;78.80;;;;;;5053299;28;20224;-70
2023/01/18 12:31:54;;;;;;;0.32;0.32;;;4.80;75.80;;;;;;5053589;28;20240;-69
2023/01/18 12:34:36;;;;;;;2.47;2.42;;;4.70;76.00;;;;;;5053479;28;20171;-70
2023/01/18 12:37:42;;;;;;;0.40;0.40;;;4.60;76.50;;;;;;5053255;28;20182;-72
2023/01/18 12:40:30;;;;;;;0.40;0.40;;;4.70;76.60;;;;;;5053369;28;20237;-73
2023/01/18 12:43:20;;;;;;;0.52;0.52;;;4.50;76.80;;;;;;5053042;28;20574;-72
2023/01/18 12:46:08;;;;;;;0.70;0.70;;;4.20;76.80;;;;;;5053217;28;20170;-68
2023/01/18 12:48:41;;;;;;;0.50;0.50;;;4.20;78.20;;;;;;5053045;28;20186;-71
2023/01/18 12:51:17;;;;;;;0.50;0.50;;;4.30;76.90;;;;;;5053069;28;20181;-68
2023/01/18 12:53:54;;;;;;;0.80;0.80;;;4.40;78.70;;;;;;5052964;28;20166;-70
2023/01/18 12:56:39;;;;;;;0.40;0.40;;;4.70;79.60;;;;;;5051901;28;20167;-68
2023/01/18 12:59:10;;;;;;;0.50;0.50;;;4.80;76.20;;;;;;5053044;28;20193;-70
2023/01/18 13:01:41;;;;;;;0.50;0.50;;;4.90;76.70;;;;;;5053192;28;20270;-70
2023/01/18 13:04:23;;;;;;;0.43;0.43;;;5.10;78.30;;;;;;5053031;28;20166;-71
2023/01/18 13:06:54;;;;;;;0.50;0.50;;;5.20;76.90;;;;;;5053083;28;20170;-70
2023/01/18 13:09:25;;;;;;;0.40;0.40;;;5.20;78.70;;;;;;5052924;28;20657;-71
2023/01/18 13:11:51;;;;;;;0.70;0.70;;;5.20;78.50;;;;;;5052878;28;20199;-70
2023/01/18 13:14:37;;;;;;;0.40;0.40;;;5.20;78.10;;;;;;5053027;28;20197;-68
2023/01/18 13:17:12;;;;;;;0.40;0.40;;;5.10;77.30;;;;;;5053014;28;20421;-71
2023/01/18 13:19:53;;;;;;;0.40;0.40;;;4.70;77.20;;;;;;5052869;28;20185;-70
2023/01/18 13:22:38;;;;;;;2.70;2.60;;;4.60;79.20;;;;;;5056204;28;20170;-71
2023/01/18 13:25:18;;;;;;;0.52;0.52;;;4.30;78.60;;;;;;5055333;28;20275;-71
2023/01/18 13:28:14;;;;;;;0.40;0.40;;;4.20;78.90;;;;;;5056844;28;20217;-69
2023/01/18 13:31:03;;;;;;;0.40;0.40;;;3.90;78.70;;;;;;5056412;28;20166;-72
2023/01/18 13:33:43;;;;;;;0.40;0.40;;;3.80;80.10;;;;;;5056279;28;20162;-69
2023/01/18 13:36:16;;;;;;;0.50;0.50;;;3.80;81.10;;;;;;5056584;28;20162;-70
2023/01/18 13:38:55;;;;;;;0.50;0.43;;;3.80;80.20;;;;;;5056198;28;20335;-70
2023/01/18 13:41:28;;;;;;;0.40;0.40;;;3.80;80.60;;;;;;5056237;28;20211;-71
2023/01/18 13:44:00;;;;;;;0.70;0.68;;;3.70;81.20;;;;;;5056066;28;20265;-72
2023/01/18 13:46:26;;;;;;;0.88;0.88;;;3.60;80.90;;;;;;5056569;28;20177;-70
2023/01/18 13:48:58;;;;;;;0.52;0.52;;;3.70;81.50;;;;;;5056104;28;20198;-72
2023/01/18 13:51:39;;;;;;;0.55;0.55;;;3.60;80.50;;;;;;5056168;28;20186;-72